sensor_id;sensor_type;location;lat;lon;timestamp;pressure;altitude;pressure_sealevel;temperature;humidity
42727;BME280;28372;56.832;60.658;2022-11-30T00:03:43;99805.47;;;-4.68;42.27
42727;BME280;28372;56.832;60.658;2022-11-30T00:06:13;99797.34;;;-4.66;42.64
42727;BME280;28372;56.832;60.658;2022-11-30T00:08:41;99804.59;;;-4.61;41.91
42727;BME280;28372;56.832;60.658;2022-11-30T00:11:16;99812.53;;;-4.61;41.97
42727;BME280;28372;56.832;60.658;2022-11-30T00:13:44;99807.03;;;-4.60;42.19
42727;BME280;28372;56.832;60.658;2022-11-30T00:16:11;99803.34;;;-4.59;42.35
42727;BME280;28372;56.832;60.658;2022-11-30T00:18:39;99800.47;;;-4.57;41.69
42727;BME280;28372;56.832;60.658;2022-11-30T00:21:11;99808.09;;;-4.49;41.77
42727;BME280;28372;56.832;60.658;2022-11-30T00:23:40;99813.59;;;-4.51;42.22
42727;BME280;28372;56.832;60.658;2022-11-30T00:26:10;99801.28;;;-4.57;41.89
42727;BME280;28372;56.832;60.658;2022-11-30T00:28:38;99802.75;;;-4.61;41.81
42727;BME280;28372;56.832;60.658;2022-11-30T00:31:09;99798.72;;;-4.63;41.75
42727;BME280;28372;56.832;60.658;2022-11-30T00:33:38;99792.88;;;-4.66;41.96
42727;BME280;28372;56.832;60.658;2022-11-30T00:36:14;99796.31;;;-4.65;42.48
42727;BME280;28372;56.832;60.658;2022-11-30T00:38:42;99797.78;;;-4.69;41.88
42727;BME280;28372;56.832;60.658;2022-11-30T00:41:10;99801.88;;;-4.73;41.83
42727;BME280;28372;56.832;60.658;2022-11-30T00:43:38;99789.59;;;-4.79;42.11
42727;BME280;28372;56.832;60.658;2022-11-30T00:46:06;99772.13;;;-4.99;42.04
42727;BME280;28372;56.832;60.658;2022-11-30T00:48:36;99787.09;;;-4.93;42.68
42727;BME280;28372;56.832;60.658;2022-11-30T00:51:04;99776.38;;;-4.98;42.62
42727;BME280;28372;56.832;60.658;2022-11-30T00:53:32;99775.19;;;-5.02;42.15
42727;BME280;28372;56.832;60.658;2022-11-30T00:56:00;99778.00;;;-4.97;42.47
42727;BME280;28372;56.832;60.658;2022-11-30T00:58:27;99782.25;;;-4.96;42.35
42727;BME280;28372;56.832;60.658;2022-11-30T01:00:54;99765.81;;;-4.98;42.79
42727;BME280;28372;56.832;60.658;2022-11-30T01:03:22;99777.75;;;-4.95;42.18
42727;BME280;28372;56.832;60.658;2022-11-30T01:05:49;99776.69;;;-4.88;43.04
42727;BME280;28372;56.832;60.658;2022-11-30T01:08:17;99774.59;;;-4.86;42.49
42727;BME280;28372;56.832;60.658;2022-11-30T01:10:45;99755.19;;;-4.91;42.97
42727;BME280;28372;56.832;60.658;2022-11-30T01:13:15;99777.19;;;-4.79;42.49
42727;BME280;28372;56.832;60.658;2022-11-30T01:15:43;99770.88;;;-4.78;42.46
42727;BME280;28372;56.832;60.658;2022-11-30T01:18:10;99767.41;;;-4.78;42.37
42727;BME280;28372;56.832;60.658;2022-11-30T01:20:41;99765.81;;;-4.79;42.63
42727;BME280;28372;56.832;60.658;2022-11-30T01:23:09;99762.75;;;-4.76;42.03
42727;BME280;28372;56.832;60.658;2022-11-30T01:25:37;99768.03;;;-4.76;42.20
42727;BME280;28372;56.832;60.658;2022-11-30T01:28:05;99774.09;;;-4.76;42.29
42727;BME280;28372;56.832;60.658;2022-11-30T01:30:33;99775.50;;;-4.73;42.12
42727;BME280;28372;56.832;60.658;2022-11-30T01:33:02;99776.44;;;-4.68;42.00
42727;BME280;28372;56.832;60.658;2022-11-30T01:35:30;99767.34;;;-4.72;42.44
42727;BME280;28372;56.832;60.658;2022-11-30T01:37:58;99775.03;;;-4.70;42.27
42727;BME280;28372;56.832;60.658;2022-11-30T01:40:25;99769.75;;;-4.70;42.38
42727;BME280;28372;56.832;60.658;2022-11-30T01:42:53;99766.53;;;-4.72;42.38
42727;BME280;28372;56.832;60.658;2022-11-30T01:45:20;99769.75;;;-4.70;42.44
42727;BME280;28372;56.832;60.658;2022-11-30T01:47:51;99768.50;;;-4.68;43.68
42727;BME280;28372;56.832;60.658;2022-11-30T01:50:24;99776.34;;;-4.61;43.24
42727;BME280;28372;56.832;60.658;2022-11-30T01:52:55;99771.00;;;-4.54;41.73
42727;BME280;28372;56.832;60.658;2022-11-30T01:55:30;99770.56;;;-4.51;41.85
42727;BME280;28372;56.832;60.658;2022-11-30T01:58:06;99759.75;;;-4.50;42.34
42727;BME280;28372;56.832;60.658;2022-11-30T02:00:35;99757.34;;;-4.51;41.64
42727;BME280;28372;56.832;60.658;2022-11-30T02:05:54;99751.13;;;-4.57;42.02
42727;BME280;28372;56.832;60.658;2022-11-30T02:08:22;99771.00;;;-4.54;41.82
42727;BME280;28372;56.832;60.658;2022-11-30T02:10:57;99764.59;;;-4.47;42.39
42727;BME280;28372;56.832;60.658;2022-11-30T02:18:45;99758.28;;;-4.45;42.07
42727;BME280;28372;56.832;60.658;2022-11-30T02:21:25;99767.47;;;-4.48;42.09
42727;BME280;28372;56.832;60.658;2022-11-30T02:27:13;99765.97;;;-4.44;43.08
42727;BME280;28372;56.832;60.658;2022-11-30T02:29:48;99760.94;;;-4.45;42.58
42727;BME280;28372;56.832;60.658;2022-11-30T02:32:22;99759.94;;;-4.33;43.18
42727;BME280;28372;56.832;60.658;2022-11-30T02:34:52;99761.25;;;-4.42;42.82
42727;BME280;28372;56.832;60.658;2022-11-30T02:37:23;99751.31;;;-4.40;43.03
42727;BME280;28372;56.832;60.658;2022-11-30T02:39:51;99756.34;;;-4.38;42.93
42727;BME280;28372;56.832;60.658;2022-11-30T02:42:19;99761.41;;;-4.37;43.78
42727;BME280;28372;56.832;60.658;2022-11-30T02:44:49;99758.09;;;-4.32;44.02
42727;BME280;28372;56.832;60.658;2022-11-30T02:47:30;99756.19;;;-4.25;46.26
42727;BME280;28372;56.832;60.658;2022-11-30T02:50:06;99753.53;;;-4.25;46.09
42727;BME280;28372;56.832;60.658;2022-11-30T02:52:37;99760.19;;;-4.22;45.01
42727;BME280;28372;56.832;60.658;2022-11-30T02:55:10;99762.97;;;-4.17;49.88
42727;BME280;28372;56.832;60.658;2022-11-30T02:57:38;99761.34;;;-4.18;48.56
42727;BME280;28372;56.832;60.658;2022-11-30T03:00:07;99757.13;;;-4.19;49.45
42727;BME280;28372;56.832;60.658;2022-11-30T03:02:36;99756.53;;;-4.21;47.47
42727;BME280;28372;56.832;60.658;2022-11-30T03:05:05;99756.66;;;-4.16;48.29
42727;BME280;28372;56.832;60.658;2022-11-30T03:07:33;99753.19;;;-4.17;47.43
42727;BME280;28372;56.832;60.658;2022-11-30T03:10:04;99763.66;;;-4.10;47.75
42727;BME280;28372;56.832;60.658;2022-11-30T03:12:32;99745.63;;;-4.13;47.35
42727;BME280;28372;56.832;60.658;2022-11-30T03:14:59;99745.06;;;-4.15;48.29
42727;BME280;28372;56.832;60.658;2022-11-30T03:17:26;99749.31;;;-4.14;47.88
42727;BME280;28372;56.832;60.658;2022-11-30T03:19:54;99757.38;;;-4.09;47.52
42727;BME280;28372;56.832;60.658;2022-11-30T03:22:22;99761.16;;;-4.05;48.18
42727;BME280;28372;56.832;60.658;2022-11-30T03:24:49;99760.16;;;-4.04;47.36
42727;BME280;28372;56.832;60.658;2022-11-30T03:27:17;99763.00;;;-4.05;46.05
42727;BME280;28372;56.832;60.658;2022-11-30T03:29:44;99752.06;;;-4.09;46.94
42727;BME280;28372;56.832;60.658;2022-11-30T03:32:12;99764.38;;;-4.03;50.27
42727;BME280;28372;56.832;60.658;2022-11-30T03:34:39;99764.75;;;-3.99;52.86
42727;BME280;28372;56.832;60.658;2022-11-30T03:37:07;99762.09;;;-3.99;55.02
42727;BME280;28372;56.832;60.658;2022-11-30T03:39:34;99759.69;;;-4.01;59.63
42727;BME280;28372;56.832;60.658;2022-11-30T03:42:02;99755.88;;;-4.05;60.91
42727;BME280;28372;56.832;60.658;2022-11-30T03:44:29;99759.56;;;-4.06;63.28
42727;BME280;28372;56.832;60.658;2022-11-30T03:46:57;99752.66;;;-4.07;64.20
42727;BME280;28372;56.832;60.658;2022-11-30T03:49:24;99758.06;;;-4.14;64.95
42727;BME280;28372;56.832;60.658;2022-11-30T03:51:52;99758.84;;;-4.13;65.42
42727;BME280;28372;56.832;60.658;2022-11-30T03:54:19;99760.31;;;-4.17;65.78
42727;BME280;28372;56.832;60.658;2022-11-30T03:56:47;99761.56;;;-4.20;67.72
42727;BME280;28372;56.832;60.658;2022-11-30T03:59:15;99761.81;;;-4.21;66.90
42727;BME280;28372;56.832;60.658;2022-11-30T04:01:42;99765.69;;;-4.24;67.96
42727;BME280;28372;56.832;60.658;2022-11-30T04:04:10;99768.34;;;-4.24;69.01
42727;BME280;28372;56.832;60.658;2022-11-30T04:06:38;99765.13;;;-4.26;69.62
42727;BME280;28372;56.832;60.658;2022-11-30T04:09:08;99768.72;;;-4.20;70.88
42727;BME280;28372;56.832;60.658;2022-11-30T04:11:36;99763.44;;;-4.20;70.46
42727;BME280;28372;56.832;60.658;2022-11-30T04:14:03;99764.22;;;-4.20;70.41
42727;BME280;28372;56.832;60.658;2022-11-30T04:16:31;99763.44;;;-4.20;69.11
42727;BME280;28372;56.832;60.658;2022-11-30T04:18:58;99753.88;;;-4.21;68.01
42727;BME280;28372;56.832;60.658;2022-11-30T04:21:26;99759.75;;;-4.19;66.41
42727;BME280;28372;56.832;60.658;2022-11-30T04:23:53;99761.72;;;-4.15;66.27
42727;BME280;28372;56.832;60.658;2022-11-30T04:26:20;99755.75;;;-4.10;66.27
42727;BME280;28372;56.832;60.658;2022-11-30T04:28:48;99749.91;;;-4.12;66.30
42727;BME280;28372;56.832;60.658;2022-11-30T04:31:15;99756.19;;;-4.13;66.17
42727;BME280;28372;56.832;60.658;2022-11-30T04:33:43;99754.34;;;-4.13;67.19
42727;BME280;28372;56.832;60.658;2022-11-30T04:36:17;99761.97;;;-4.04;67.16
42727;BME280;28372;56.832;60.658;2022-11-30T04:38:46;99755.75;;;-4.10;67.83
42727;BME280;28372;56.832;60.658;2022-11-30T04:41:14;99772.44;;;-4.09;67.21
42727;BME280;28372;56.832;60.658;2022-11-30T04:43:41;99772.19;;;-4.08;68.95
42727;BME280;28372;56.832;60.658;2022-11-30T04:46:08;99766.09;;;-4.08;69.88
42727;BME280;28372;56.832;60.658;2022-11-30T04:48:36;99772.44;;;-4.09;72.30
42727;BME280;28372;56.832;60.658;2022-11-30T04:51:06;99782.53;;;-4.06;72.43
42727;BME280;28372;56.832;60.658;2022-11-30T04:53:35;99778.06;;;-4.06;71.24
42727;BME280;28372;56.832;60.658;2022-11-30T04:56:04;99772.19;;;-4.08;69.69
42727;BME280;28372;56.832;60.658;2022-11-30T04:58:33;99780.22;;;-4.03;70.27
42727;BME280;28372;56.832;60.658;2022-11-30T05:01:01;99770.94;;;-4.05;68.65
42727;BME280;28372;56.832;60.658;2022-11-30T05:03:28;99769.31;;;-4.06;67.90
42727;BME280;28372;56.832;60.658;2022-11-30T05:05:55;99779.66;;;-4.05;66.89
42727;BME280;28372;56.832;60.658;2022-11-30T05:08:23;99752.06;;;-4.21;66.51
42727;BME280;28372;56.832;60.658;2022-11-30T05:10:52;99777.03;;;-4.05;63.55
42727;BME280;28372;56.832;60.658;2022-11-30T05:13:20;99779.81;;;-4.00;63.20
42727;BME280;28372;56.832;60.658;2022-11-30T05:15:48;99784.50;;;-4.02;62.25
42727;BME280;28372;56.832;60.658;2022-11-30T05:18:16;99783.00;;;-3.98;62.93
42727;BME280;28372;56.832;60.658;2022-11-30T05:20:51;99784.31;;;-3.88;61.54
42727;BME280;28372;56.832;60.658;2022-11-30T05:23:19;99781.66;;;-3.88;59.71
42727;BME280;28372;56.832;60.658;2022-11-30T05:25:47;99791.19;;;-3.87;59.43
42727;BME280;28372;56.832;60.658;2022-11-30T05:28:15;99785.56;;;-3.91;60.45
42727;BME280;28372;56.832;60.658;2022-11-30T05:30:43;99784.53;;;-3.90;58.51
42727;BME280;28372;56.832;60.658;2022-11-30T05:33:11;99792.00;;;-3.87;58.03
42727;BME280;28372;56.832;60.658;2022-11-30T05:35:38;99794.44;;;-3.85;58.98
42727;BME280;28372;56.832;60.658;2022-11-30T05:38:06;99787.28;;;-3.85;60.08
42727;BME280;28372;56.832;60.658;2022-11-30T05:40:33;99780.38;;;-3.86;58.58
42727;BME280;28372;56.832;60.658;2022-11-30T05:43:02;99788.44;;;-3.81;57.99
42727;BME280;28372;56.832;60.658;2022-11-30T05:45:30;99786.16;;;-3.77;56.91
42727;BME280;28372;56.832;60.658;2022-11-30T05:47:57;99781.91;;;-3.78;55.97
42727;BME280;28372;56.832;60.658;2022-11-30T05:50:25;99781.13;;;-3.79;56.24
42727;BME280;28372;56.832;60.658;2022-11-30T05:52:53;99776.63;;;-3.78;55.63
42727;BME280;28372;56.832;60.658;2022-11-30T05:55:24;99784.56;;;-3.78;56.82
42727;BME280;28372;56.832;60.658;2022-11-30T05:57:51;99781.13;;;-3.79;58.24
42727;BME280;28372;56.832;60.658;2022-11-30T06:00:19;99781.91;;;-3.78;58.51
42727;BME280;28372;56.832;60.658;2022-11-30T06:02:47;99769.16;;;-3.81;56.57
42727;BME280;28372;56.832;60.658;2022-11-30T06:05:15;99768.13;;;-3.80;58.84
42727;BME280;28372;56.832;60.658;2022-11-30T06:07:42;99765.25;;;-3.79;58.04
42727;BME280;28372;56.832;60.658;2022-11-30T06:10:10;99770.19;;;-3.70;55.54
42727;BME280;28372;56.832;60.658;2022-11-30T06:12:38;99768.34;;;-3.70;54.52
42727;BME280;28372;56.832;60.658;2022-11-30T06:15:05;99770.91;;;-3.63;54.79
42727;BME280;28372;56.832;60.658;2022-11-30T06:17:34;99771.00;;;-3.58;55.24
42727;BME280;28372;56.832;60.658;2022-11-30T06:20:05;99769.75;;;-3.55;53.62
42727;BME280;28372;56.832;60.658;2022-11-30T06:22:33;99771.34;;;-3.54;53.40
42727;BME280;28372;56.832;60.658;2022-11-30T06:25:00;99778.03;;;-3.52;53.82
42727;BME280;28372;56.832;60.658;2022-11-30T06:27:30;99769.50;;;-3.54;54.79
42727;BME280;28372;56.832;60.658;2022-11-30T06:29:58;99773.31;;;-3.50;52.48
42727;BME280;28372;56.832;60.658;2022-11-30T06:32:25;99781.13;;;-3.43;52.71
42727;BME280;28372;56.832;60.658;2022-11-30T06:34:52;99784.34;;;-3.41;50.95
42727;BME280;28372;56.832;60.658;2022-11-30T06:37:20;99777.00;;;-3.39;50.45
42727;BME280;28372;56.832;60.658;2022-11-30T06:39:47;99777.47;;;-3.42;51.26
42727;BME280;28372;56.832;60.658;2022-11-30T06:42:36;99780.44;;;-3.38;49.69
42727;BME280;28372;56.832;60.658;2022-11-30T06:45:05;99754.44;;;-3.41;49.00
42727;BME280;28372;56.832;60.658;2022-11-30T06:47:33;99762.16;;;-3.40;47.77
42727;BME280;28372;56.832;60.658;2022-11-30T06:50:00;99769.06;;;-3.39;49.25
42727;BME280;28372;56.832;60.658;2022-11-30T06:52:31;99760.09;;;-3.38;49.64
42727;BME280;28372;56.832;60.658;2022-11-30T06:54:59;99769.63;;;-3.37;49.30
42727;BME280;28372;56.832;60.658;2022-11-30T06:57:27;99767.56;;;-3.35;49.42
42727;BME280;28372;56.832;60.658;2022-11-30T06:59:56;99760.53;;;-3.29;49.29
42727;BME280;28372;56.832;60.658;2022-11-30T07:02:23;99769.63;;;-3.25;49.04
42727;BME280;28372;56.832;60.658;2022-11-30T07:04:51;99761.69;;;-3.25;51.48
42727;BME280;28372;56.832;60.658;2022-11-30T07:07:18;99762.00;;;-3.21;52.67
42727;BME280;28372;56.832;60.658;2022-11-30T07:09:46;99760.66;;;-3.24;49.26
42727;BME280;28372;56.832;60.658;2022-11-30T07:12:13;99763.41;;;-3.19;50.57
42727;BME280;28372;56.832;60.658;2022-11-30T07:14:40;99766.28;;;-3.20;49.73
42727;BME280;28372;56.832;60.658;2022-11-30T07:17:08;99766.88;;;-3.18;49.95
42727;BME280;28372;56.832;60.658;2022-11-30T07:19:35;99762.59;;;-3.19;49.09
42727;BME280;28372;56.832;60.658;2022-11-30T07:22:03;99767.91;;;-3.19;46.98
42727;BME280;28372;56.832;60.658;2022-11-30T07:24:30;99756.84;;;-3.16;47.55
42727;BME280;28372;56.832;60.658;2022-11-30T07:27:16;99752.81;;;-3.19;48.20
42727;BME280;28372;56.832;60.658;2022-11-30T07:29:43;99752.13;;;-3.14;47.73
42727;BME280;28372;56.832;60.658;2022-11-30T07:32:11;99758.56;;;-3.10;46.49
42727;BME280;28372;56.832;60.658;2022-11-30T07:34:38;99759.13;;;-3.08;47.89
42727;BME280;28372;56.832;60.658;2022-11-30T07:37:06;99759.94;;;-3.07;46.35
42727;BME280;28372;56.832;60.658;2022-11-30T07:39:33;99762.94;;;-3.04;48.01
42727;BME280;28372;56.832;60.658;2022-11-30T07:42:01;99757.97;;;-3.00;46.93
42727;BME280;28372;56.832;60.658;2022-11-30T07:44:28;99767.53;;;-2.99;48.14
42727;BME280;28372;56.832;60.658;2022-11-30T07:46:55;99764.16;;;-2.95;46.32
42727;BME280;28372;56.832;60.658;2022-11-30T07:49:23;99753.56;;;-2.95;46.58
42727;BME280;28372;56.832;60.658;2022-11-30T07:51:50;99755.19;;;-2.94;47.72
42727;BME280;28372;56.832;60.658;2022-11-30T07:54:18;99753.56;;;-2.95;49.27
42727;BME280;28372;56.832;60.658;2022-11-30T07:56:45;99753.38;;;-2.93;48.75
42727;BME280;28372;56.832;60.658;2022-11-30T07:59:12;99751.28;;;-2.91;50.78
42727;BME280;28372;56.832;60.658;2022-11-30T08:01:40;99757.16;;;-2.89;49.47
42727;BME280;28372;56.832;60.658;2022-11-30T08:04:07;99752.97;;;-2.85;48.41
42727;BME280;28372;56.832;60.658;2022-11-30T08:06:35;99750.00;;;-2.88;51.41
42727;BME280;28372;56.832;60.658;2022-11-30T08:09:03;99762.19;;;-2.76;48.99
42727;BME280;28372;56.832;60.658;2022-11-30T08:11:32;99762.75;;;-2.73;49.33
42727;BME280;28372;56.832;60.658;2022-11-30T08:14:01;99764.03;;;-2.76;47.54
42727;BME280;28372;56.832;60.658;2022-11-30T08:16:30;99763.19;;;-2.65;47.80
42727;BME280;28372;56.832;60.658;2022-11-30T08:19:00;99770.31;;;-2.65;46.51
42727;BME280;28372;56.832;60.658;2022-11-30T08:21:28;99765.34;;;-2.62;45.91
42727;BME280;28372;56.832;60.658;2022-11-30T08:23:55;99771.44;;;-2.61;45.46
42727;BME280;28372;56.832;60.658;2022-11-30T08:26:29;99767.53;;;-2.59;45.03
42727;BME280;28372;56.832;60.658;2022-11-30T08:28:58;99765.13;;;-2.60;45.38
42727;BME280;28372;56.832;60.658;2022-11-30T08:31:29;99764.09;;;-2.59;47.51
42727;BME280;28372;56.832;60.658;2022-11-30T08:33:59;99765.34;;;-2.62;47.45
42727;BME280;28372;56.832;60.658;2022-11-30T08:36:28;99764.81;;;-2.64;46.38
42727;BME280;28372;56.832;60.658;2022-11-30T08:38:57;99769.16;;;-2.69;47.43
42727;BME280;28372;56.832;60.658;2022-11-30T08:41:25;99767.34;;;-2.81;46.28
42727;BME280;28372;56.832;60.658;2022-11-30T08:43:53;99765.78;;;-2.82;47.08
42727;BME280;28372;56.832;60.658;2022-11-30T08:46:22;99761.25;;;-2.81;46.34
42727;BME280;28372;56.832;60.658;2022-11-30T08:49:10;99755.13;;;-2.70;46.00
42727;BME280;28372;56.832;60.658;2022-11-30T08:51:49;99763.06;;;-2.70;46.97
42727;BME280;28372;56.832;60.658;2022-11-30T08:54:37;99762.28;;;-2.70;45.12
42727;BME280;28372;56.832;60.658;2022-11-30T08:57:06;99762.53;;;-2.72;48.96
42727;BME280;28372;56.832;60.658;2022-11-30T08:59:33;99765.63;;;-2.75;50.00
42727;BME280;28372;56.832;60.658;2022-11-30T09:02:01;99762.78;;;-2.85;48.49
42727;BME280;28372;56.832;60.658;2022-11-30T09:04:28;99762.22;;;-2.87;48.70
42727;BME280;28372;56.832;60.658;2022-11-30T09:06:56;99761.06;;;-3.03;50.31
42727;BME280;28372;56.832;60.658;2022-11-30T09:09:25;99769.59;;;-3.01;48.25
42727;BME280;28372;56.832;60.658;2022-11-30T09:11:53;99761.75;;;-2.96;48.02
42727;BME280;28372;56.832;60.658;2022-11-30T09:14:20;99764.16;;;-2.95;46.65
42727;BME280;28372;56.832;60.658;2022-11-30T09:16:47;99762.66;;;-2.90;46.41
42727;BME280;28372;56.832;60.658;2022-11-30T09:19:15;99768.78;;;-2.90;47.47
42727;BME280;28372;56.832;60.658;2022-11-30T09:21:42;99768.06;;;-2.85;45.56
42727;BME280;28372;56.832;60.658;2022-11-30T09:24:17;99764.72;;;-2.81;46.17
42727;BME280;28372;56.832;60.658;2022-11-30T09:26:45;99766.09;;;-2.78;44.63
42727;BME280;28372;56.832;60.658;2022-11-30T09:29:13;99767.94;;;-2.79;44.77
42727;BME280;28372;56.832;60.658;2022-11-30T09:31:40;99757.25;;;-2.84;44.23
42727;BME280;28372;56.832;60.658;2022-11-30T09:34:09;99749.28;;;-2.84;44.25
42727;BME280;28372;56.832;60.658;2022-11-30T09:36:37;99750.91;;;-2.83;44.36
42727;BME280;28372;56.832;60.658;2022-11-30T09:39:05;99754.59;;;-2.84;43.38
42727;BME280;28372;56.832;60.658;2022-11-30T09:44:37;99751.72;;;-2.82;43.50
42727;BME280;28372;56.832;60.658;2022-11-30T09:50:19;99753.91;;;-2.91;43.21
42727;BME280;28372;56.832;60.658;2022-11-30T09:52:56;99756.47;;;-2.96;44.61
42727;BME280;28372;56.832;60.658;2022-11-30T09:55:30;99762.56;;;-2.96;45.04
42727;BME280;28372;56.832;60.658;2022-11-30T09:58:04;99757.28;;;-2.96;45.81
42727;BME280;28372;56.832;60.658;2022-11-30T10:00:32;99762.34;;;-2.94;44.54
42727;BME280;28372;56.832;60.658;2022-11-30T10:03:03;99754.94;;;-2.92;44.60
42727;BME280;28372;56.832;60.658;2022-11-30T10:05:45;99750.31;;;-2.85;45.37
42727;BME280;28372;56.832;60.658;2022-11-30T10:27:51;99744.63;;;-3.05;43.52
42727;BME280;28372;56.832;60.658;2022-11-30T10:30:21;99751.19;;;-3.08;43.00
42727;BME280;28372;56.832;60.658;2022-11-30T10:32:54;99748.44;;;-3.13;44.11
42727;BME280;28372;56.832;60.658;2022-11-30T10:35:42;99757.19;;;-3.13;44.12
42727;BME280;28372;56.832;60.658;2022-11-30T10:38:26;99750.06;;;-3.24;45.24
42727;BME280;28372;56.832;60.658;2022-11-30T10:40:58;99752.38;;;-3.28;43.87
42727;BME280;28372;56.832;60.658;2022-11-30T10:43:34;99760.31;;;-3.28;45.01
42727;BME280;28372;56.832;60.658;2022-11-30T10:46:04;99747.53;;;-3.42;45.65
42727;BME280;28372;56.832;60.658;2022-11-30T10:48:38;99762.28;;;-3.35;46.78
42727;BME280;28372;56.832;60.658;2022-11-30T10:51:06;99762.63;;;-3.43;46.44
42727;BME280;28372;56.832;60.658;2022-11-30T10:53:35;99771.69;;;-3.39;48.75
42727;BME280;28372;56.832;60.658;2022-11-30T10:56:09;99767.22;;;-3.38;49.43
42727;BME280;28372;56.832;60.658;2022-11-30T11:01:33;99768.47;;;-3.41;47.76
42727;BME280;28372;56.832;60.658;2022-11-30T11:06:44;99766.53;;;-3.46;52.31
42727;BME280;28372;56.832;60.658;2022-11-30T11:11:56;99769.97;;;-3.45;48.86
42727;BME280;28372;56.832;60.658;2022-11-30T11:14:25;99775.72;;;-3.48;49.66
42727;BME280;28372;56.832;60.658;2022-11-30T11:17:04;99776.06;;;-3.33;50.31
42727;BME280;28372;56.832;60.658;2022-11-30T11:19:38;99776.19;;;-3.39;50.76
42727;BME280;28372;56.832;60.658;2022-11-30T11:24:40;99779.41;;;-3.49;47.87
42727;BME280;28372;56.832;60.658;2022-11-30T11:27:27;99779.75;;;-3.46;47.41
42727;BME280;28372;56.832;60.658;2022-11-30T11:30:15;99778.38;;;-3.36;48.17
42727;BME280;28372;56.832;60.658;2022-11-30T11:33:00;99780.09;;;-3.42;46.46
42727;BME280;28372;56.832;60.658;2022-11-30T11:40:54;99782.06;;;-3.49;49.14
42727;BME280;28372;56.832;60.658;2022-11-30T11:43:24;99780.09;;;-3.54;49.62
42727;BME280;28372;56.832;60.658;2022-11-30T11:45:54;99771.22;;;-3.59;49.07
42727;BME280;28372;56.832;60.658;2022-11-30T11:48:44;99781.25;;;-3.50;49.07
42727;BME280;28372;56.832;60.658;2022-11-30T11:51:37;99778.03;;;-3.52;48.60
42727;BME280;28372;56.832;60.658;2022-11-30T11:54:42;99774.34;;;-3.51;48.15
42727;BME280;28372;56.832;60.658;2022-11-30T11:57:15;99779.16;;;-3.59;47.45
42727;BME280;28372;56.832;60.658;2022-11-30T12:02:44;99783.66;;;-3.60;48.01
42727;BME280;28372;56.832;60.658;2022-11-30T12:05:52;99780.09;;;-3.54;49.20
42727;BME280;28372;56.832;60.658;2022-11-30T12:11:54;99773.53;;;-3.63;46.86
42727;BME280;28372;56.832;60.658;2022-11-30T12:14:24;99786.63;;;-3.56;46.50
42727;BME280;28372;56.832;60.658;2022-11-30T12:25:22;99786.63;;;-3.68;47.87
42727;BME280;28372;56.832;60.658;2022-11-30T12:28:00;99787.00;;;-3.65;48.12
42727;BME280;28372;56.832;60.658;2022-11-30T12:33:29;99788.81;;;-3.65;47.10
42727;BME280;28372;56.832;60.658;2022-11-30T12:36:16;99794.69;;;-3.63;46.21
42727;BME280;28372;56.832;60.658;2022-11-30T12:39:08;99784.78;;;-3.80;46.35
42727;BME280;28372;56.832;60.658;2022-11-30T12:41:49;99800.09;;;-3.70;46.41
42727;BME280;28372;56.832;60.658;2022-11-30T12:52:23;99780.28;;;-3.79;45.85
42727;BME280;28372;56.832;60.658;2022-11-30T13:00:20;99778.88;;;-3.93;49.48
42727;BME280;28372;56.832;60.658;2022-11-30T13:05:38;99789.38;;;-3.87;48.63
42727;BME280;28372;56.832;60.658;2022-11-30T13:11:37;99789.00;;;-3.90;50.64
42727;BME280;28372;56.832;60.658;2022-11-30T13:14:15;99791.16;;;-3.99;48.23
42727;BME280;28372;56.832;60.658;2022-11-30T13:16:49;99788.38;;;-4.04;48.08
42727;BME280;28372;56.832;60.658;2022-11-30T13:22:08;99784.56;;;-4.20;50.42
42727;BME280;28372;56.832;60.658;2022-11-30T13:24:44;99792.13;;;-4.24;50.28
42727;BME280;28372;56.832;60.658;2022-11-30T13:27:19;99789.06;;;-4.21;51.71
42727;BME280;28372;56.832;60.658;2022-11-30T13:30:32;99786.06;;;-4.13;49.76
42727;BME280;28372;56.832;60.658;2022-11-30T13:41:36;99792.81;;;-4.17;48.55
42727;BME280;28372;56.832;60.658;2022-11-30T13:44:04;99791.47;;;-4.19;47.51
42727;BME280;28372;56.832;60.658;2022-11-30T13:46:33;99789.63;;;-4.19;48.46
42727;BME280;28372;56.832;60.658;2022-11-30T13:49:20;99795.38;;;-4.10;49.29
42727;BME280;28372;56.832;60.658;2022-11-30T13:51:49;99793.50;;;-4.21;48.30
42727;BME280;28372;56.832;60.658;2022-11-30T13:54:46;99796.06;;;-4.15;49.76
42727;BME280;28372;56.832;60.658;2022-11-30T13:59:52;99785.03;;;-4.23;52.70
42727;BME280;28372;56.832;60.658;2022-11-30T14:10:30;99789.72;;;-4.25;49.12
42727;BME280;28372;56.832;60.658;2022-11-30T14:26:14;99800.81;;;-4.35;49.20
42727;BME280;28372;56.832;60.658;2022-11-30T14:29:16;99795.22;;;-4.27;50.34
42727;BME280;28372;56.832;60.658;2022-11-30T14:34:34;99779.81;;;-4.30;54.09
42727;BME280;28372;56.832;60.658;2022-11-30T14:37:11;99784.09;;;-4.29;54.59
42727;BME280;28372;56.832;60.658;2022-11-30T14:39:44;99787.50;;;-4.28;53.55
42727;BME280;28372;56.832;60.658;2022-11-30T14:42:23;99792.94;;;-4.23;54.21
42727;BME280;28372;56.832;60.658;2022-11-30T14:44:53;99780.63;;;-4.30;53.70
42727;BME280;28372;56.832;60.658;2022-11-30T14:47:32;99772.97;;;-4.19;56.83
42727;BME280;28372;56.832;60.658;2022-11-30T14:50:02;99784.72;;;-4.15;57.05
42727;BME280;28372;56.832;60.658;2022-11-30T15:00:22;99779.19;;;-4.14;55.79
42727;BME280;28372;56.832;60.658;2022-11-30T15:02:49;99776.88;;;-4.10;53.48
42727;BME280;28372;56.832;60.658;2022-11-30T15:05:23;99781.28;;;-4.04;53.49
42727;BME280;28372;56.832;60.658;2022-11-30T15:07:54;99773.59;;;-4.05;56.11
42727;BME280;28372;56.832;60.658;2022-11-30T15:10:31;99769.00;;;-3.98;57.27
42727;BME280;28372;56.832;60.658;2022-11-30T15:13:00;99772.19;;;-4.08;59.09
42727;BME280;28372;56.832;60.658;2022-11-30T15:15:28;99770.94;;;-4.05;63.40
42727;BME280;28372;56.832;60.658;2022-11-30T15:18:06;99770.34;;;-4.07;65.92
42727;BME280;28372;56.832;60.658;2022-11-30T15:20:58;99769.22;;;-4.00;65.31
42727;BME280;28372;56.832;60.658;2022-11-30T15:23:27;99770.13;;;-4.06;65.34
42727;BME280;28372;56.832;60.658;2022-11-30T15:25:58;99769.66;;;-4.03;65.25
42727;BME280;28372;56.832;60.658;2022-11-30T15:28:33;99766.47;;;-4.05;65.80